Terminal Aerodrome Forecast
Issued by NWS

Home | Current Version | Previous Version | Text Only | Print | Product List | Glossary On
Versions: 1 2 3 4 5 6 7 8 9 10 11 12 13 14 15 16 17 18 19 20 21 22 23 24 25 26
000
FTUS43 KICT 211731
TAFRSL
TAF
KRSL 211731Z 2118/2218 14006KT P6SM FEW200
     FM212200 09007KT P6SM SCT200
     FM220100 04008KT P6SM BKN110
     FM220500 36008KT P6SM BKN080
     FM221000 34012KT P6SM SCT150=

USA.gov is the U.S. government's official web portal to all federal, state and local government web resources and services.